createdAt,value
2023-04-03T00:04:47.116Z,1.42
2023-04-03T00:09:51.315Z,1.18
2023-04-03T00:14:56.868Z,1.35
2023-04-03T00:20:01.339Z,1.09
2023-04-03T00:25:05.883Z,1.04
2023-04-03T00:30:15.572Z,1.12
2023-04-03T00:35:20.788Z,1.00
2023-04-03T00:40:27.736Z,1.31
2023-04-03T00:45:36.559Z,0.96
2023-04-03T00:50:43.492Z,1.03
2023-04-03T00:55:50.305Z,0.95
2023-04-03T01:01:00.329Z,0.90
2023-04-03T01:06:05.109Z,0.96
2023-04-03T01:11:09.413Z,1.17
2023-04-03T01:16:15.449Z,1.12
2023-04-03T01:21:59.220Z,1.34
2023-04-03T01:27:06.801Z,1.15
2023-04-03T01:32:12.918Z,1.01
2023-04-03T01:37:19.374Z,0.88
2023-04-03T01:42:23.628Z,0.90
2023-04-03T01:47:29.461Z,0.83
2023-04-03T01:52:34.117Z,0.81
2023-04-03T01:57:38.268Z,0.74
2023-04-03T02:02:44.706Z,0.69
2023-04-03T02:07:48.856Z,0.74
2023-04-03T02:12:52.935Z,0.66
2023-04-03T02:17:58.568Z,0.63
2023-04-03T02:23:04.570Z,0.63
2023-04-03T02:28:08.932Z,0.56
2023-04-03T02:33:14.521Z,0.55
2023-04-03T02:38:18.969Z,0.55
2023-04-03T02:43:23.055Z,0.48
2023-04-03T02:48:29.023Z,0.56
2023-04-03T02:53:32.937Z,0.56
2023-04-03T02:58:42.571Z,0.54
2023-04-03T03:03:48.850Z,0.60
2023-04-03T03:08:54.226Z,0.57
2023-04-03T03:13:58.592Z,0.46
2023-04-03T03:19:05.103Z,0.42
2023-04-03T03:24:09.801Z,0.34
2023-04-03T03:29:13.926Z,0.35
2023-04-03T03:34:19.689Z,0.31
2023-04-03T03:39:24.267Z,0.26
2023-04-03T03:44:30.064Z,0.30
2023-04-03T03:49:36.290Z,0.39
2023-04-03T03:54:40.730Z,0.28
2023-04-03T03:59:46.096Z,0.46
2023-04-03T04:04:51.732Z,0.25
2023-04-03T04:09:55.847Z,0.22
2023-04-03T04:15:00.331Z,0.17
2023-04-03T04:20:08.321Z,0.12
2023-04-03T04:25:13.885Z,0.09
2023-04-03T04:30:18.465Z,0.22
2023-04-03T04:35:26.943Z,0.09
2023-04-03T04:40:31.403Z,0.22
2023-04-03T04:45:36.779Z,0.08
2023-04-03T04:50:42.591Z,0.02
2023-04-03T04:55:46.622Z,0.12
2023-04-03T05:00:51.360Z,-0.11
2023-04-03T05:05:57.176Z,-0.41
2023-04-03T05:11:01.459Z,-0.49
2023-04-03T05:16:07.266Z,-0.53
2023-04-03T05:21:13.469Z,-0.54
2023-04-03T05:26:17.411Z,-0.60
2023-04-03T05:31:24.482Z,-0.56
2023-04-03T05:36:31.247Z,-0.65
2023-04-03T05:41:40.178Z,-0.48
2023-04-03T05:46:44.468Z,-0.65
2023-04-03T05:51:52.429Z,-0.75
2023-04-03T05:57:02.844Z,-0.72
2023-04-03T06:02:07.332Z,-0.56
2023-04-03T06:07:16.530Z,-0.71
2023-04-03T06:12:21.081Z,-0.75
2023-04-03T06:17:25.572Z,-0.20
2023-04-03T06:22:33.057Z,-0.56
2023-04-03T06:27:39.025Z,-0.81
2023-04-03T06:32:44.003Z,-0.74
2023-04-03T06:37:49.794Z,-0.75
2023-04-03T06:42:53.610Z,-0.90
2023-04-03T06:47:58.120Z,-0.76
2023-04-03T06:53:04.674Z,-0.74
2023-04-03T06:58:08.987Z,-0.75
2023-04-03T07:03:13.194Z,-0.74
2023-04-03T07:08:18.847Z,-0.83
2023-04-03T07:13:22.912Z,-1.04
2023-04-03T07:18:27.554Z,-1.17
2023-04-03T07:23:33.533Z,-1.24
2023-04-03T07:28:38.661Z,-1.13
2023-04-03T07:33:43.838Z,-0.96
2023-04-03T07:38:50.042Z,-1.06
2023-04-03T07:43:54.679Z,-1.03
2023-04-03T07:48:58.861Z,-1.17
2023-04-03T07:54:05.036Z,-1.04
2023-04-03T07:59:09.142Z,-1.09
2023-04-03T08:04:13.440Z,-1.09
2023-04-03T08:09:20.285Z,-1.15
2023-04-03T08:14:24.479Z,-1.12
2023-04-03T08:19:28.918Z,-0.91
2023-04-03T08:24:35.388Z,-1.12
2023-04-03T08:29:40.931Z,-1.16
2023-04-03T08:34:45.119Z,-1.10
2023-04-03T08:39:51.154Z,-1.18
2023-04-03T08:45:01.796Z,-1.34
2023-04-03T08:50:10.837Z,-1.46
2023-04-03T08:55:26.268Z,-1.24
2023-04-03T09:00:34.808Z,-1.26
2023-04-03T09:05:46.411Z,-1.24
2023-04-03T09:10:54.596Z,-1.37
2023-04-03T09:15:59.484Z,-1.35
2023-04-03T09:21:10.433Z,-1.35
2023-04-03T09:26:19.035Z,-1.41
2023-04-03T09:31:25.739Z,-1.26
2023-04-03T09:36:44.597Z,-1.25
2023-04-03T09:42:02.463Z,-1.27
2023-04-03T09:47:21.650Z,-1.20
2023-04-03T09:52:27.599Z,-1.49
2023-04-03T09:57:36.077Z,-1.49
2023-04-03T10:02:41.806Z,-1.57
2023-04-03T10:07:51.666Z,-1.52
2023-04-03T10:13:10.526Z,-1.40
2023-04-03T10:18:31.944Z,-1.33
2023-04-03T10:23:44.205Z,-1.55
2023-04-03T10:28:59.844Z,-1.56
2023-04-03T10:34:08.232Z,-1.47
2023-04-03T10:39:29.479Z,-1.39
2023-04-03T10:44:44.054Z,-1.23
2023-04-03T10:49:59.967Z,-1.28
2023-04-03T10:55:19.766Z,-1.22
2023-04-03T11:00:32.897Z,-1.09
2023-04-03T11:05:41.853Z,-0.91
2023-04-03T11:10:48.946Z,-0.64
2023-04-03T11:15:56.933Z,-0.21
2023-04-03T11:21:06.521Z,-0.25
2023-04-03T11:26:13.920Z,-0.57
2023-04-03T11:31:44.644Z,-0.30
2023-04-03T11:36:51.346Z,-0.46
2023-04-03T11:42:06.849Z,-0.70
2023-04-03T11:47:47.484Z,-0.62
2023-04-03T11:53:06.169Z,-0.60
2023-04-03T11:58:17.428Z,-0.61
2023-04-03T12:03:53.854Z,-0.73
2023-04-03T12:08:58.538Z,-0.76
2023-04-03T12:14:07.370Z,-0.62
2023-04-03T12:19:42.641Z,-0.82
2023-04-03T12:24:49.631Z,-0.95
2023-04-03T12:30:00.919Z,-0.83
2023-04-03T12:35:19.618Z,-0.78
2023-04-03T12:40:32.982Z,-0.36
2023-04-03T12:45:43.968Z,-0.28
2023-04-03T12:50:51.608Z,-0.14
2023-04-03T12:55:59.845Z,0.28
2023-04-03T13:01:05.784Z,0.62
2023-04-03T13:06:19.566Z,1.00
2023-04-03T13:11:24.570Z,0.85
2023-04-03T13:16:29.201Z,1.18
2023-04-03T13:21:37.304Z,0.35
2023-04-03T13:26:41.792Z,0.58
2023-04-03T13:31:46.024Z,0.63
2023-04-03T13:37:01.291Z,0.50
2023-04-03T13:42:18.409Z,1.44
2023-04-03T13:47:27.414Z,1.11
2023-04-03T13:52:37.018Z,1.06
2023-04-03T13:57:51.955Z,0.79
2023-04-03T14:02:58.316Z,0.61
2023-04-03T14:08:03.958Z,0.55
2023-04-03T14:13:08.084Z,0.39
2023-04-03T14:18:13.999Z,1.53
2023-04-03T14:23:19.555Z,0.87
2023-04-03T14:28:25.005Z,1.54
2023-04-03T14:33:32.220Z,2.47
2023-04-03T14:38:37.919Z,1.94
2023-04-03T14:43:41.959Z,1.35
2023-04-03T14:48:46.446Z,2.14
2023-04-03T14:53:52.469Z,1.86
2023-04-03T14:58:58.022Z,1.78
2023-04-03T15:04:02.267Z,2.03
2023-04-03T15:09:10.558Z,1.96
2023-04-03T15:14:19.604Z,1.47
2023-04-03T15:19:39.951Z,1.79
2023-04-03T15:24:46.168Z,1.24
2023-04-03T15:29:50.299Z,1.18
2023-04-03T15:34:56.726Z,1.51
2023-04-03T15:40:02.931Z,1.13
2023-04-03T15:45:07.495Z,1.19
2023-04-03T15:50:12.720Z,1.48
2023-04-03T15:55:18.449Z,1.41
2023-04-03T16:00:23.191Z,1.10
2023-04-03T16:05:27.741Z,1.18
2023-04-03T16:10:33.678Z,1.11
2023-04-03T16:15:38.379Z,1.12
2023-04-03T16:20:44.765Z,1.19
2023-04-03T16:25:54.807Z,1.81
2023-04-03T16:31:00.419Z,1.44
2023-04-03T16:36:07.085Z,1.24
2023-04-03T16:41:12.731Z,1.08
2023-04-03T16:46:17.207Z,1.22
2023-04-03T16:51:21.472Z,1.21
2023-04-03T16:56:27.710Z,0.95
2023-04-03T17:01:32.009Z,1.01
2023-04-03T17:06:39.289Z,1.00
2023-04-03T17:11:47.452Z,0.99
2023-04-03T17:16:53.402Z,1.26
2023-04-03T17:21:57.936Z,1.01
2023-04-03T17:27:03.972Z,1.11
2023-04-03T17:32:08.142Z,1.01
2023-04-03T17:37:12.506Z,1.08
2023-04-03T17:42:18.139Z,0.98
2023-04-03T17:47:22.170Z,1.14
2023-04-03T17:52:28.451Z,1.41
2023-04-03T17:57:33.964Z,1.03
2023-04-03T18:02:38.454Z,0.95
2023-04-03T18:07:43.055Z,1.33
2023-04-03T18:12:48.670Z,1.01
2023-04-03T18:17:58.124Z,0.98
2023-04-03T18:23:02.399Z,0.86
2023-04-03T18:28:08.420Z,1.37
2023-04-03T18:33:12.649Z,1.46
2023-04-03T18:38:16.808Z,0.99
2023-04-03T18:43:22.675Z,0.90
2023-04-03T18:48:27.175Z,0.69
2023-04-03T18:53:31.563Z,0.60
2023-04-03T18:58:37.361Z,1.02
2023-04-03T19:03:42.070Z,0.76
2023-04-03T19:08:47.185Z,0.60
2023-04-03T19:14:10.078Z,0.68
2023-04-03T19:19:16.899Z,0.61
2023-04-03T19:24:21.793Z,0.76
2023-04-03T19:29:27.531Z,0.41
2023-04-03T19:34:31.694Z,0.06
2023-04-03T19:39:38.029Z,0.02
2023-04-03T19:44:43.887Z,-0.03
2023-04-03T19:49:48.203Z,-0.10
2023-04-03T19:54:53.019Z,-0.14
2023-04-03T19:59:58.752Z,-0.22
2023-04-03T20:05:02.961Z,-0.31
2023-04-03T20:10:07.748Z,-0.24
2023-04-03T20:15:13.543Z,-0.14
2023-04-03T20:20:18.825Z,-0.06
2023-04-03T20:25:43.870Z,0.03
2023-04-03T20:30:51.411Z,-0.13
2023-04-03T20:35:57.126Z,-0.08
2023-04-03T20:41:01.082Z,0.06
2023-04-03T20:46:06.881Z,-0.03
2023-04-03T20:51:11.437Z,-0.03
2023-04-03T20:56:16.165Z,0.06
2023-04-03T21:01:24.102Z,-0.03
2023-04-03T21:07:05.576Z,0.18
2023-04-03T21:12:47.208Z,-0.08
2023-04-03T21:18:07.772Z,0.03
2023-04-03T21:23:12.086Z,-0.18
2023-04-03T21:28:16.876Z,-0.16
2023-04-03T21:33:22.497Z,-0.29
2023-04-03T21:38:27.628Z,-0.33
2023-04-03T21:43:31.753Z,-0.40
2023-04-03T21:48:37.666Z,-0.54
2023-04-03T21:53:42.028Z,-0.62
2023-04-03T21:58:46.227Z,-0.71
2023-04-03T22:03:51.775Z,-0.77
2023-04-03T22:08:57.108Z,-0.76
2023-04-03T22:14:01.384Z,-0.76
2023-04-03T22:19:07.568Z,-0.91
2023-04-03T22:24:11.669Z,-0.98
2023-04-03T22:29:15.944Z,-1.07
2023-04-03T22:34:22.759Z,-1.05
2023-04-03T22:39:27.083Z,-0.84
2023-04-03T22:44:36.230Z,-0.80
2023-04-03T22:49:42.225Z,-0.99
2023-04-03T22:54:46.264Z,-1.25
2023-04-03T22:59:50.747Z,-1.19
2023-04-03T23:04:56.317Z,-1.21
2023-04-03T23:10:00.963Z,-0.75
2023-04-03T23:15:05.805Z,-1.11
2023-04-03T23:20:12.483Z,-1.11
2023-04-03T23:25:17.033Z,-1.43
2023-04-03T23:30:21.700Z,-1.52
2023-04-03T23:35:27.240Z,-1.61
2023-04-03T23:40:31.455Z,-1.62
2023-04-03T23:45:35.523Z,-1.64
2023-04-03T23:50:41.536Z,-1.70
2023-04-03T23:55:45.966Z,-1.35
